METAR Data
IDs: Format: Raw Decoded Include TAF

Data at: 1237 UTC 26 Feb 2021

EDDH 261220Z 29014KT 260V320 9999 SCT017 09/04 Q1031 NOSIG